createdAt,value
2023-03-31T00:02:13.785Z,8.80
2023-03-31T00:04:52.560Z,8.80
2023-03-31T00:07:23.572Z,8.80
2023-03-31T00:10:00.931Z,8.80
2023-03-31T00:12:37.280Z,8.70
2023-03-31T00:15:04.363Z,8.70
2023-03-31T00:17:33.379Z,8.70
2023-03-31T00:20:04.821Z,8.70
2023-03-31T00:22:31.829Z,8.60
2023-03-31T00:24:58.549Z,8.60
2023-03-31T00:27:25.420Z,8.60
2023-03-31T00:29:53.084Z,8.60
2023-03-31T00:32:19.859Z,8.60
2023-03-31T00:34:46.848Z,8.60
2023-03-31T00:37:14.901Z,8.60
2023-03-31T00:39:43.283Z,8.50
2023-03-31T00:42:13.073Z,8.50
2023-03-31T00:45:14.949Z,8.60
2023-03-31T00:47:44.043Z,8.60
2023-03-31T00:50:26.006Z,8.70
2023-03-31T00:53:00.499Z,8.60
2023-03-31T00:55:36.985Z,8.60
2023-03-31T00:58:06.542Z,8.60
2023-03-31T01:00:33.741Z,8.60
2023-03-31T01:03:06.943Z,8.70
2023-03-31T01:05:44.548Z,8.60
2023-03-31T01:08:12.100Z,8.50
2023-03-31T01:10:43.507Z,8.50
2023-03-31T01:13:12.086Z,8.50
2023-03-31T01:15:39.431Z,8.50
2023-03-31T01:18:07.164Z,8.40
2023-03-31T01:20:51.640Z,8.40
2023-03-31T01:23:52.389Z,8.40
2023-03-31T01:26:38.773Z,8.40
2023-03-31T01:29:25.607Z,8.40
2023-03-31T01:32:33.825Z,8.50
2023-03-31T01:35:24.957Z,8.50
2023-03-31T01:38:09.807Z,8.60
2023-03-31T01:41:06.531Z,8.60
2023-03-31T01:43:47.726Z,8.70
2023-03-31T01:46:39.675Z,8.70
2023-03-31T01:49:21.351Z,8.80
2023-03-31T01:52:06.165Z,8.90
2023-03-31T01:54:50.641Z,9.00
2023-03-31T01:57:46.150Z,9.00
2023-03-31T02:00:15.982Z,9.00
2023-03-31T02:03:00.845Z,9.00
2023-03-31T02:05:35.031Z,9.00
2023-03-31T02:08:36.910Z,9.00
2023-03-31T02:11:03.696Z,9.00
2023-03-31T02:13:34.269Z,9.00
2023-03-31T02:16:11.691Z,9.10
2023-03-31T02:18:41.788Z,9.20
2023-03-31T02:21:09.449Z,9.20
2023-03-31T02:23:38.338Z,9.20
2023-03-31T02:26:08.108Z,9.10
2023-03-31T02:28:35.612Z,9.10
2023-03-31T02:31:05.479Z,9.20
2023-03-31T02:33:32.536Z,9.00
2023-03-31T02:36:00.152Z,9.00
2023-03-31T02:38:27.252Z,9.00
2023-03-31T02:40:54.323Z,9.00
2023-03-31T02:43:21.247Z,9.00
2023-03-31T02:45:50.294Z,8.90
2023-03-31T02:48:22.695Z,9.00
2023-03-31T02:51:09.013Z,8.90
2023-03-31T02:53:56.683Z,8.90
2023-03-31T02:56:29.559Z,8.90
2023-03-31T02:59:10.998Z,8.90
2023-03-31T03:01:49.170Z,8.80
2023-03-31T03:04:49.600Z,8.80
2023-03-31T03:07:26.653Z,8.80
2023-03-31T03:10:10.767Z,8.80
2023-03-31T03:12:49.482Z,8.80
2023-03-31T03:15:40.726Z,8.80
2023-03-31T03:18:07.784Z,8.70
2023-03-31T03:20:35.806Z,8.60
2023-03-31T03:23:03.212Z,8.60
2023-03-31T03:25:30.344Z,8.60
2023-03-31T03:27:59.427Z,8.50
2023-03-31T03:30:26.169Z,8.60
2023-03-31T03:32:54.695Z,8.50
2023-03-31T03:35:21.720Z,8.50
2023-03-31T03:37:48.413Z,8.50
2023-03-31T03:40:15.436Z,8.50
2023-03-31T03:42:42.257Z,8.50
2023-03-31T03:45:09.612Z,8.50
2023-03-31T03:47:36.508Z,8.50
2023-03-31T03:50:04.295Z,8.50
2023-03-31T03:52:31.045Z,8.50
2023-03-31T03:54:57.750Z,8.50
2023-03-31T03:57:24.451Z,8.50
2023-03-31T03:59:51.322Z,8.50
2023-03-31T04:02:18.167Z,8.50
2023-03-31T04:04:44.886Z,8.50
2023-03-31T04:07:11.739Z,8.50
2023-03-31T04:09:38.548Z,8.40
2023-03-31T04:12:05.696Z,8.30
2023-03-31T04:14:32.430Z,8.30
2023-03-31T04:16:59.134Z,8.30
2023-03-31T04:19:26.045Z,8.30
2023-03-31T04:21:58.889Z,8.30
2023-03-31T04:24:30.709Z,8.20
2023-03-31T04:26:58.673Z,8.20
2023-03-31T04:29:26.841Z,8.20
2023-03-31T04:31:59.745Z,8.20
2023-03-31T04:34:34.757Z,8.10
2023-03-31T04:37:03.523Z,8.20
2023-03-31T04:39:31.048Z,8.10
2023-03-31T04:41:59.577Z,8.10
2023-03-31T04:44:27.159Z,8.10
2023-03-31T04:46:54.584Z,8.10
2023-03-31T04:49:21.527Z,8.10
2023-03-31T04:51:48.398Z,8.10
2023-03-31T04:54:15.123Z,8.00
2023-03-31T04:56:42.199Z,8.00
2023-03-31T04:59:09.064Z,8.00
2023-03-31T05:01:36.552Z,8.00
2023-03-31T05:04:06.554Z,8.00
2023-03-31T05:06:33.616Z,8.00
2023-03-31T05:09:00.860Z,8.00
2023-03-31T05:11:28.960Z,8.00
2023-03-31T05:13:55.951Z,7.90
2023-03-31T05:16:22.797Z,8.00
2023-03-31T05:18:49.476Z,8.00
2023-03-31T05:21:19.386Z,8.00
2023-03-31T05:23:46.573Z,8.00
2023-03-31T05:26:14.075Z,8.00
2023-03-31T05:28:41.892Z,8.00
2023-03-31T05:31:09.980Z,8.10
2023-03-31T05:33:41.779Z,8.10
2023-03-31T05:36:10.771Z,8.00
2023-03-31T05:38:37.785Z,8.00
2023-03-31T05:41:07.034Z,7.90
2023-03-31T05:43:33.790Z,8.00
2023-03-31T05:46:12.116Z,7.90
2023-03-31T05:48:39.215Z,7.90
2023-03-31T05:51:06.512Z,7.90
2023-03-31T05:53:34.093Z,7.90
2023-03-31T05:56:04.486Z,8.00
2023-03-31T05:58:31.346Z,8.00
2023-03-31T06:01:13.352Z,8.00
2023-03-31T06:03:42.242Z,8.00
2023-03-31T06:06:10.259Z,8.00
2023-03-31T06:08:40.573Z,8.00
2023-03-31T06:11:09.561Z,8.00
2023-03-31T06:13:37.765Z,8.00
2023-03-31T06:16:06.151Z,8.10
2023-03-31T06:18:35.453Z,8.10
2023-03-31T06:21:03.135Z,8.10
2023-03-31T06:23:30.136Z,8.10
2023-03-31T06:26:04.832Z,8.10
2023-03-31T06:28:31.572Z,8.10
2023-03-31T06:31:07.102Z,8.10
2023-03-31T06:33:34.907Z,8.10
2023-03-31T06:36:04.930Z,8.10
2023-03-31T06:38:32.120Z,8.10
2023-03-31T06:40:59.063Z,8.10
2023-03-31T06:43:25.964Z,8.10
2023-03-31T06:45:54.117Z,8.20
2023-03-31T06:48:22.327Z,8.10
2023-03-31T06:50:49.110Z,8.10
2023-03-31T06:53:15.953Z,8.10
2023-03-31T06:55:42.634Z,8.20
2023-03-31T06:58:09.408Z,8.10
2023-03-31T07:00:36.467Z,8.20
2023-03-31T07:03:05.503Z,8.30
2023-03-31T07:05:32.537Z,8.30
2023-03-31T07:08:00.469Z,8.30
2023-03-31T07:10:29.571Z,8.30
2023-03-31T07:12:56.440Z,8.40
2023-03-31T07:15:24.484Z,8.40
2023-03-31T07:17:54.029Z,8.40
2023-03-31T07:20:21.141Z,8.40
2023-03-31T07:22:49.381Z,8.50
2023-03-31T07:25:17.772Z,8.50
2023-03-31T07:27:44.816Z,8.50
2023-03-31T07:30:14.848Z,8.50
2023-03-31T07:32:41.791Z,8.50
2023-03-31T07:35:10.797Z,8.50
2023-03-31T07:37:39.287Z,8.40
2023-03-31T07:40:06.566Z,8.40
2023-03-31T07:42:34.073Z,8.40
2023-03-31T07:45:01.190Z,8.40
2023-03-31T07:47:28.355Z,8.50
2023-03-31T07:49:55.202Z,8.50
2023-03-31T07:52:21.949Z,8.50
2023-03-31T07:54:48.801Z,8.50
2023-03-31T07:57:17.682Z,8.60
2023-03-31T07:59:44.611Z,8.60
2023-03-31T08:02:16.860Z,8.60
2023-03-31T08:04:45.296Z,8.60
2023-03-31T08:07:13.761Z,8.60
2023-03-31T08:09:42.958Z,8.60
2023-03-31T08:12:10.304Z,8.60
2023-03-31T08:14:41.287Z,8.70
2023-03-31T08:17:10.306Z,8.90
2023-03-31T08:19:37.109Z,9.00
2023-03-31T08:22:04.133Z,9.10
2023-03-31T08:24:31.092Z,9.20
2023-03-31T08:26:57.778Z,9.40
2023-03-31T08:29:24.490Z,9.50
2023-03-31T08:31:51.376Z,9.60
2023-03-31T08:34:18.068Z,9.70
2023-03-31T08:36:44.913Z,9.80
2023-03-31T08:39:11.928Z,10.00
2023-03-31T08:41:59.849Z,10.00
2023-03-31T08:44:32.316Z,10.10
2023-03-31T08:47:00.900Z,10.30
2023-03-31T08:49:42.201Z,10.40
2023-03-31T08:52:15.647Z,10.50
2023-03-31T08:54:46.609Z,10.70
2023-03-31T08:57:20.804Z,10.80
2023-03-31T08:59:47.783Z,10.80
2023-03-31T09:02:42.048Z,11.00
2023-03-31T09:05:33.884Z,11.00
2023-03-31T09:08:20.944Z,11.10
2023-03-31T09:10:56.530Z,11.20
2023-03-31T09:13:51.232Z,11.30
2023-03-31T09:16:26.055Z,11.30
2023-03-31T09:18:58.461Z,11.50
2023-03-31T09:21:43.423Z,11.60
2023-03-31T09:24:21.922Z,11.50
2023-03-31T09:27:02.361Z,11.60
2023-03-31T09:29:52.647Z,11.80
2023-03-31T09:32:31.252Z,11.80
2023-03-31T09:35:03.205Z,11.90
2023-03-31T09:37:33.274Z,12.00
2023-03-31T09:40:02.324Z,12.00
2023-03-31T09:42:29.087Z,11.90
2023-03-31T09:44:56.137Z,11.80
2023-03-31T09:47:40.427Z,11.90
2023-03-31T09:50:08.577Z,11.80
2023-03-31T09:52:43.825Z,11.80
2023-03-31T09:55:38.223Z,12.20
2023-03-31T09:58:07.875Z,12.30
2023-03-31T10:00:36.065Z,12.60
2023-03-31T10:03:07.829Z,12.90
2023-03-31T10:05:38.088Z,13.20
2023-03-31T10:08:19.543Z,13.40
2023-03-31T10:10:53.249Z,13.60
2023-03-31T10:13:38.032Z,13.50
2023-03-31T10:16:09.905Z,13.80
2023-03-31T10:18:39.348Z,14.40
2023-03-31T10:21:15.657Z,14.60
2023-03-31T10:23:47.580Z,14.30
2023-03-31T10:26:19.655Z,14.20
2023-03-31T10:28:50.548Z,14.30
2023-03-31T10:31:17.785Z,14.00
2023-03-31T10:33:50.137Z,13.70
2023-03-31T10:36:27.221Z,13.80
2023-03-31T10:38:55.265Z,14.10
2023-03-31T10:41:25.794Z,14.30
2023-03-31T10:43:57.364Z,14.20
2023-03-31T10:46:52.942Z,14.10
2023-03-31T10:49:22.699Z,14.40
2023-03-31T10:51:57.809Z,14.80
2023-03-31T10:54:25.566Z,14.80
2023-03-31T10:57:05.572Z,15.00
2023-03-31T10:59:53.508Z,14.70
2023-03-31T11:02:39.257Z,14.30
2023-03-31T11:05:22.862Z,14.30
2023-03-31T11:08:13.247Z,14.30
2023-03-31T11:11:04.185Z,14.10
2023-03-31T11:13:39.121Z,13.90
2023-03-31T11:16:26.607Z,13.30
2023-03-31T11:18:53.395Z,12.90
2023-03-31T11:21:47.456Z,12.50
2023-03-31T11:24:51.452Z,12.00
2023-03-31T11:27:27.824Z,11.20
2023-03-31T11:30:04.349Z,10.40
2023-03-31T11:32:37.401Z,10.10
2023-03-31T11:35:14.318Z,9.80
2023-03-31T11:37:52.822Z,9.70
2023-03-31T11:40:25.084Z,9.60
2023-03-31T11:43:14.859Z,9.60
2023-03-31T11:45:48.038Z,9.50
2023-03-31T11:48:26.543Z,9.50
2023-03-31T11:50:54.972Z,9.50
2023-03-31T11:53:28.872Z,9.50
2023-03-31T11:55:58.147Z,9.50
2023-03-31T11:58:45.821Z,9.70
2023-03-31T12:01:21.839Z,9.90
2023-03-31T12:04:01.984Z,10.10
2023-03-31T12:06:33.755Z,10.50
2023-03-31T12:09:30.468Z,10.80
2023-03-31T12:12:22.766Z,10.90
2023-03-31T12:14:59.565Z,10.80
2023-03-31T12:17:27.494Z,10.90
2023-03-31T12:20:10.631Z,10.90
2023-03-31T12:22:43.979Z,11.00
2023-03-31T12:25:26.174Z,11.20
2023-03-31T12:27:54.873Z,11.30
2023-03-31T12:30:43.020Z,11.40
2023-03-31T12:33:15.700Z,11.40
2023-03-31T12:36:20.782Z,11.50
2023-03-31T12:39:08.812Z,11.60
2023-03-31T12:42:08.302Z,11.90
2023-03-31T12:47:24.472Z,12.10
2023-03-31T12:50:16.702Z,12.10
2023-03-31T12:52:49.789Z,12.10
2023-03-31T12:55:41.067Z,12.20
2023-03-31T12:58:23.116Z,12.30
2023-03-31T13:01:16.135Z,12.30
2023-03-31T13:03:51.994Z,12.50
2023-03-31T13:06:27.870Z,12.40
2023-03-31T13:09:00.996Z,12.40
2023-03-31T13:11:33.968Z,12.40
2023-03-31T13:14:20.886Z,12.40
2023-03-31T13:16:49.081Z,12.30
2023-03-31T13:19:32.375Z,12.30
2023-03-31T13:22:01.795Z,12.20
2023-03-31T13:24:31.076Z,12.10
2023-03-31T13:27:18.175Z,11.90
2023-03-31T13:29:45.594Z,11.90
2023-03-31T13:32:26.255Z,11.80
2023-03-31T13:34:58.617Z,11.50
2023-03-31T13:37:45.256Z,11.20
2023-03-31T13:40:12.389Z,10.90
2023-03-31T13:43:21.716Z,10.40
2023-03-31T13:45:57.062Z,10.00
2023-03-31T13:48:27.791Z,9.80
2023-03-31T13:51:10.064Z,9.70
2023-03-31T13:54:04.765Z,9.60
2023-03-31T13:57:11.937Z,9.30
2023-03-31T14:00:14.248Z,9.20
2023-03-31T14:02:47.298Z,9.10
2023-03-31T14:05:31.420Z,9.20
2023-03-31T14:08:12.169Z,9.10
2023-03-31T14:10:42.067Z,9.20
2023-03-31T14:13:18.865Z,9.50
2023-03-31T14:15:50.895Z,9.70
2023-03-31T14:18:30.550Z,9.90
2023-03-31T14:21:06.267Z,10.10
2023-03-31T14:23:51.526Z,10.20
2023-03-31T14:26:30.196Z,10.20
2023-03-31T14:29:17.712Z,10.20
2023-03-31T14:31:55.732Z,10.10
2023-03-31T14:34:57.885Z,9.90
2023-03-31T14:37:25.816Z,10.00
2023-03-31T14:39:57.981Z,10.10
2023-03-31T14:42:39.757Z,10.20
2023-03-31T14:45:37.136Z,10.40
2023-03-31T14:48:13.673Z,10.50
2023-03-31T14:50:44.768Z,10.60
2023-03-31T14:53:16.285Z,10.60
2023-03-31T14:58:26.121Z,10.70
2023-03-31T15:00:53.953Z,10.70
2023-03-31T15:03:20.997Z,10.80
2023-03-31T15:05:49.848Z,10.90
2023-03-31T15:08:22.879Z,10.80
2023-03-31T15:10:58.960Z,10.80
2023-03-31T15:13:39.789Z,10.90
2023-03-31T15:16:32.887Z,10.90
2023-03-31T15:19:01.454Z,10.90
2023-03-31T15:21:31.519Z,10.80
2023-03-31T15:23:59.154Z,10.80
2023-03-31T15:26:40.458Z,10.70
2023-03-31T15:29:21.307Z,10.70
2023-03-31T15:31:48.636Z,10.60
2023-03-31T15:34:28.253Z,10.60
2023-03-31T15:36:56.910Z,10.50
2023-03-31T15:39:26.464Z,10.40
2023-03-31T15:41:53.679Z,10.40
2023-03-31T15:44:43.551Z,10.40
2023-03-31T15:47:22.168Z,10.40
2023-03-31T15:49:50.287Z,10.40
2023-03-31T15:52:34.119Z,10.30
2023-03-31T15:55:01.934Z,10.30
2023-03-31T15:57:34.455Z,10.30
2023-03-31T16:00:04.329Z,10.30
2023-03-31T16:02:46.391Z,10.30
2023-03-31T16:05:29.352Z,10.20
2023-03-31T16:07:58.201Z,10.20
2023-03-31T16:10:25.683Z,10.20
2023-03-31T16:13:03.200Z,10.20
2023-03-31T16:15:40.085Z,10.20
2023-03-31T16:18:15.012Z,10.10
2023-03-31T16:20:53.162Z,10.10
2023-03-31T16:23:23.529Z,10.10
2023-03-31T16:25:50.577Z,10.10
2023-03-31T16:28:22.535Z,10.00
2023-03-31T16:30:49.461Z,9.90
2023-03-31T16:33:19.263Z,9.90
2023-03-31T16:35:56.158Z,9.80
2023-03-31T16:38:25.010Z,9.80
2023-03-31T16:40:54.776Z,9.70
2023-03-31T16:43:24.099Z,9.60
2023-03-31T16:45:53.104Z,9.50
2023-03-31T16:48:21.672Z,9.50
2023-03-31T16:50:51.568Z,9.40
2023-03-31T16:53:20.483Z,9.30
2023-03-31T16:55:47.319Z,9.30
2023-03-31T16:58:14.359Z,9.30
2023-03-31T17:00:41.868Z,9.30
2023-03-31T17:03:10.398Z,9.30
2023-03-31T17:05:42.293Z,9.20
2023-03-31T17:08:10.321Z,9.20
2023-03-31T17:10:39.191Z,9.20
2023-03-31T17:13:15.164Z,9.10
2023-03-31T17:15:41.978Z,9.10
2023-03-31T17:18:08.867Z,9.00
2023-03-31T17:20:36.695Z,9.00
2023-03-31T17:23:04.275Z,8.90
2023-03-31T17:25:31.178Z,8.90
2023-03-31T17:28:00.522Z,8.90
2023-03-31T17:30:28.083Z,8.80
2023-03-31T17:32:54.892Z,8.80
2023-03-31T17:35:22.472Z,8.70
2023-03-31T17:37:53.343Z,8.70
2023-03-31T17:40:25.209Z,8.70
2023-03-31T17:42:53.881Z,8.70
2023-03-31T17:45:20.617Z,8.70
2023-03-31T17:47:47.548Z,8.70
2023-03-31T17:50:14.266Z,8.70
2023-03-31T17:52:41.127Z,8.60
2023-03-31T17:55:08.263Z,8.60
2023-03-31T17:57:37.048Z,8.60
2023-03-31T18:00:09.797Z,8.60
2023-03-31T18:02:38.301Z,8.60
2023-03-31T18:05:06.985Z,8.60
2023-03-31T18:07:35.980Z,8.60
2023-03-31T18:10:05.566Z,8.60
2023-03-31T18:12:34.456Z,8.50
2023-03-31T18:15:02.814Z,8.50
2023-03-31T18:17:30.844Z,8.50
2023-03-31T18:19:59.187Z,8.60
2023-03-31T18:22:26.506Z,8.50
2023-03-31T18:24:53.214Z,8.50
2023-03-31T18:27:20.056Z,8.50
2023-03-31T18:29:46.742Z,8.50
2023-03-31T18:32:13.595Z,8.50
2023-03-31T18:34:41.915Z,8.50
2023-03-31T18:37:08.964Z,8.50
2023-03-31T18:39:35.702Z,8.50
2023-03-31T18:42:03.037Z,8.50
2023-03-31T18:44:29.812Z,8.50
2023-03-31T18:46:56.684Z,8.50
2023-03-31T18:49:23.560Z,8.50
2023-03-31T18:51:50.325Z,8.50
2023-03-31T18:54:17.127Z,8.50
2023-03-31T18:56:44.022Z,8.40
2023-03-31T18:59:10.761Z,8.40
2023-03-31T19:01:40.946Z,8.40
2023-03-31T19:04:08.234Z,8.40
2023-03-31T19:06:35.659Z,8.40
2023-03-31T19:09:02.380Z,8.40
2023-03-31T19:11:29.254Z,8.40
2023-03-31T19:13:56.607Z,8.40
2023-03-31T19:16:25.443Z,8.30
2023-03-31T19:18:53.669Z,8.40
2023-03-31T19:21:20.946Z,8.30
2023-03-31T19:23:48.036Z,8.30
2023-03-31T19:26:16.326Z,8.30
2023-03-31T19:28:43.127Z,8.30
2023-03-31T19:31:10.898Z,8.30
2023-03-31T19:33:37.781Z,8.30
2023-03-31T19:36:04.753Z,8.30
2023-03-31T19:38:33.502Z,8.30
2023-03-31T19:41:00.360Z,8.30
2023-03-31T19:43:29.280Z,8.20
2023-03-31T19:45:58.025Z,8.30
2023-03-31T19:48:26.604Z,8.20
2023-03-31T19:50:55.934Z,8.20
2023-03-31T19:53:23.621Z,8.20
2023-03-31T19:56:04.826Z,8.20
2023-03-31T19:58:35.129Z,8.20
2023-03-31T20:01:03.174Z,8.20
2023-03-31T20:03:30.122Z,8.20
2023-03-31T20:06:04.110Z,8.20
2023-03-31T20:08:30.829Z,8.20
2023-03-31T20:11:02.279Z,8.20
2023-03-31T20:13:29.773Z,8.20
2023-03-31T20:16:05.888Z,8.20
2023-03-31T20:18:36.385Z,8.20
2023-03-31T20:21:15.543Z,8.20
2023-03-31T20:23:43.629Z,8.20
2023-03-31T20:26:12.410Z,8.20
2023-03-31T20:28:40.194Z,8.20
2023-03-31T20:31:12.518Z,8.10
2023-03-31T20:33:40.151Z,8.20
2023-03-31T20:36:09.588Z,8.10
2023-03-31T20:38:37.769Z,8.10
2023-03-31T20:41:05.577Z,8.10
2023-03-31T20:43:32.941Z,8.10
2023-03-31T20:46:04.906Z,8.10
2023-03-31T20:48:34.764Z,8.10
2023-03-31T20:51:02.034Z,8.00
2023-03-31T20:53:28.910Z,8.00
2023-03-31T20:55:55.658Z,8.00
2023-03-31T20:58:22.490Z,8.10
2023-03-31T21:00:49.351Z,8.00
2023-03-31T21:03:16.246Z,8.00
2023-03-31T21:05:45.598Z,8.10
2023-03-31T21:08:12.745Z,8.10
2023-03-31T21:10:43.943Z,8.10
2023-03-31T21:13:11.986Z,8.10
2023-03-31T21:15:39.163Z,8.10
2023-03-31T21:18:07.115Z,8.10
2023-03-31T21:20:34.781Z,8.10
2023-03-31T21:23:01.651Z,8.10
2023-03-31T21:25:30.941Z,8.10
2023-03-31T21:27:58.317Z,8.10
2023-03-31T21:30:25.079Z,8.10
2023-03-31T21:32:52.788Z,8.00
2023-03-31T21:35:19.590Z,8.00
2023-03-31T21:37:46.489Z,8.00
2023-03-31T21:40:14.403Z,8.00
2023-03-31T21:42:41.227Z,8.00
2023-03-31T21:45:08.436Z,8.00
2023-03-31T21:47:35.103Z,8.00
2023-03-31T21:50:02.638Z,8.00
2023-03-31T21:52:29.323Z,8.00
2023-03-31T21:54:56.360Z,8.00
2023-03-31T21:57:23.093Z,8.00
2023-03-31T21:59:49.846Z,7.90
2023-03-31T22:02:16.559Z,7.90
2023-03-31T22:04:44.363Z,7.90
2023-03-31T22:07:12.503Z,7.90
2023-03-31T22:09:39.217Z,7.90
2023-03-31T22:12:06.062Z,7.90
2023-03-31T22:14:32.759Z,7.80
2023-03-31T22:16:59.509Z,7.80
2023-03-31T22:19:26.194Z,7.80
2023-03-31T22:21:53.617Z,7.80
2023-03-31T22:24:20.413Z,7.80
2023-03-31T22:26:47.183Z,7.80
2023-03-31T22:29:15.704Z,7.80
2023-03-31T22:31:43.322Z,7.80
2023-03-31T22:34:10.074Z,7.70
2023-03-31T22:36:36.836Z,7.70
2023-03-31T22:39:04.156Z,7.60
2023-03-31T22:41:31.203Z,7.50
2023-03-31T22:43:58.510Z,7.50
2023-03-31T22:46:25.326Z,7.50
2023-03-31T22:48:52.088Z,7.50
2023-03-31T22:51:18.916Z,7.40
2023-03-31T22:53:50.984Z,7.40
2023-03-31T22:56:18.198Z,7.40
2023-03-31T22:58:44.991Z,7.30
2023-03-31T23:01:15.608Z,7.30
2023-03-31T23:03:44.482Z,7.30
2023-03-31T23:06:12.361Z,7.30
2023-03-31T23:08:39.609Z,7.20
2023-03-31T23:11:08.890Z,7.20
2023-03-31T23:13:36.044Z,7.20
2023-03-31T23:16:11.615Z,7.20
2023-03-31T23:18:44.270Z,7.20
2023-03-31T23:21:11.109Z,7.20
2023-03-31T23:23:38.299Z,7.20
2023-03-31T23:26:06.228Z,7.20
2023-03-31T23:28:37.202Z,7.20
2023-03-31T23:31:04.287Z,7.30
2023-03-31T23:33:31.388Z,7.30
2023-03-31T23:36:01.161Z,7.30
2023-03-31T23:38:28.592Z,7.30
2023-03-31T23:40:55.497Z,7.30
2023-03-31T23:43:22.210Z,7.20
2023-03-31T23:45:49.136Z,7.20
2023-03-31T23:48:15.868Z,7.20
2023-03-31T23:50:42.626Z,7.30
2023-03-31T23:53:09.719Z,7.20
2023-03-31T23:55:36.628Z,7.20
2023-03-31T23:58:04.044Z,7.30
